sensor_id;sensor_type;location;lat;lon;timestamp;P1;P2;P0
38288;PMS5003;24092;53.370;-6.588;2023-02-03T11:56:32;1;1;
38288;PMS5003;24092;53.370;-6.588;2023-02-03T11:59:20;1;1;
38288;PMS5003;24092;53.370;-6.588;2023-02-03T12:02:20;0;0;
38288;PMS5003;24092;53.370;-6.588;2023-02-03T12:05:05;1;0;
38288;PMS5003;24092;53.370;-6.588;2023-02-03T12:07:53;1;0;
38288;PMS5003;24092;53.370;-6.588;2023-02-03T12:10:35;0;0;
38288;PMS5003;24092;53.370;-6.588;2023-02-03T12:13:15;1;1;
38288;PMS5003;24092;53.370;-6.588;2023-02-03T12:15:58;0;0;
38288;PMS5003;24092;53.370;-6.588;2023-02-03T12:18:39;1;0;
38288;PMS5003;24092;53.370;-6.588;2023-02-03T12:21:22;0;0;
38288;PMS5003;24092;53.370;-6.588;2023-02-03T12:24:02;1;0;
38288;PMS5003;24092;53.370;-6.588;2023-02-03T12:26:37;1;1;
38288;PMS5003;24092;53.370;-6.588;2023-02-03T12:31:54;0;0;
38288;PMS5003;24092;53.370;-6.588;2023-02-03T12:34:29;0;0;
38288;PMS5003;24092;53.370;-6.588;2023-02-03T12:37:01;1;1;
38288;PMS5003;24092;53.370;-6.588;2023-02-03T12:39:34;1;1;
38288;PMS5003;24092;53.370;-6.588;2023-02-03T12:42:11;2;2;
38288;PMS5003;24092;53.370;-6.588;2023-02-03T12:44:45;2;1;
38288;PMS5003;24092;53.370;-6.588;2023-02-03T12:47:21;3;1;
38288;PMS5003;24092;53.370;-6.588;2023-02-03T12:49:55;2;1;
38288;PMS5003;24092;53.370;-6.588;2023-02-03T12:52:25;1;1;
38288;PMS5003;24092;53.370;-6.588;2023-02-03T12:54:59;1;1;
38288;PMS5003;24092;53.370;-6.588;2023-02-03T12:57:35;1;1;
38288;PMS5003;24092;53.370;-6.588;2023-02-03T13:00:12;1;0;
38288;PMS5003;24092;53.370;-6.588;2023-02-03T13:02:51;0;0;
38288;PMS5003;24092;53.370;-6.588;2023-02-03T13:05:29;0;0;
38288;PMS5003;24092;53.370;-6.588;2023-02-03T13:08:06;2;1;
38288;PMS5003;24092;53.370;-6.588;2023-02-03T13:10:40;0;0;
38288;PMS5003;24092;53.370;-6.588;2023-02-03T13:13:13;1;1;
38288;PMS5003;24092;53.370;-6.588;2023-02-03T13:15:55;1;0;
38288;PMS5003;24092;53.370;-6.588;2023-02-03T13:18:24;2;1;
38288;PMS5003;24092;53.370;-6.588;2023-02-03T13:20:54;5;4;
38288;PMS5003;24092;53.370;-6.588;2023-02-03T13:23:22;4;4;
38288;PMS5003;24092;53.370;-6.588;2023-02-03T13:26:01;2;2;
38288;PMS5003;24092;53.370;-6.588;2023-02-03T13:28:43;0;0;
38288;PMS5003;24092;53.370;-6.588;2023-02-03T13:31:22;1;0;
38288;PMS5003;24092;53.370;-6.588;2023-02-03T13:34:06;1;1;
38288;PMS5003;24092;53.370;-6.588;2023-02-03T13:36:48;1;1;
38288;PMS5003;24092;53.370;-6.588;2023-02-03T13:39:36;0;0;
38288;PMS5003;24092;53.370;-6.588;2023-02-03T13:42:17;1;0;
38288;PMS5003;24092;53.370;-6.588;2023-02-03T13:44:49;1;1;
38288;PMS5003;24092;53.370;-6.588;2023-02-03T13:47:22;0;0;
38288;PMS5003;24092;53.370;-6.588;2023-02-03T13:49:53;0;0;
38288;PMS5003;24092;53.370;-6.588;2023-02-03T13:52:25;0;0;
38288;PMS5003;24092;53.370;-6.588;2023-02-03T13:54:57;1;1;
38288;PMS5003;24092;53.370;-6.588;2023-02-03T13:57:27;1;1;
38288;PMS5003;24092;53.370;-6.588;2023-02-03T13:59:58;0;0;
38288;PMS5003;24092;53.370;-6.588;2023-02-03T14:02:39;0;0;
38288;PMS5003;24092;53.370;-6.588;2023-02-03T14:05:37;0;0;
38288;PMS5003;24092;53.370;-6.588;2023-02-03T14:08:45;0;0;
38288;PMS5003;24092;53.370;-6.588;2023-02-03T14:11:48;0;0;
38288;PMS5003;24092;53.370;-6.588;2023-02-03T14:15:22;0;0;
38288;PMS5003;24092;53.370;-6.588;2023-02-03T14:18:00;0;0;
38288;PMS5003;24092;53.370;-6.588;2023-02-03T14:20:38;1;0;
38288;PMS5003;24092;53.370;-6.588;2023-02-03T14:23:09;1;1;
38288;PMS5003;24092;53.370;-6.588;2023-02-03T14:25:42;0;0;
38288;PMS5003;24092;53.370;-6.588;2023-02-03T14:28:13;0;0;
38288;PMS5003;24092;53.370;-6.588;2023-02-03T14:32:55;0;0;
38288;PMS5003;24092;53.370;-6.588;2023-02-03T14:35:28;1;1;
38288;PMS5003;24092;53.370;-6.588;2023-02-03T14:37:59;0;0;
38288;PMS5003;24092;53.370;-6.588;2023-02-03T14:40:31;1;1;
38288;PMS5003;24092;53.370;-6.588;2023-02-03T14:43:24;1;1;
38288;PMS5003;24092;53.370;-6.588;2023-02-03T14:46:05;0;0;
38288;PMS5003;24092;53.370;-6.588;2023-02-03T14:48:46;1;1;
38288;PMS5003;24092;53.370;-6.588;2023-02-03T14:51:26;1;0;
38288;PMS5003;24092;53.370;-6.588;2023-02-03T14:54:13;0;0;
38288;PMS5003;24092;53.370;-6.588;2023-02-03T14:56:53;2;1;
38288;PMS5003;24092;53.370;-6.588;2023-02-03T14:59:38;1;1;
38288;PMS5003;24092;53.370;-6.588;2023-02-03T15:02:11;0;0;
38288;PMS5003;24092;53.370;-6.588;2023-02-03T15:04:40;0;0;
38288;PMS5003;24092;53.370;-6.588;2023-02-03T15:07:08;0;0;
38288;PMS5003;24092;53.370;-6.588;2023-02-03T15:09:37;0;0;
38288;PMS5003;24092;53.370;-6.588;2023-02-03T15:12:23;0;0;
38288;PMS5003;24092;53.370;-6.588;2023-02-03T15:14:51;0;0;
38288;PMS5003;24092;53.370;-6.588;2023-02-03T15:17:21;0;0;
38288;PMS5003;24092;53.370;-6.588;2023-02-03T15:19:50;0;0;
38288;PMS5003;24092;53.370;-6.588;2023-02-03T15:22:18;0;0;
38288;PMS5003;24092;53.370;-6.588;2023-02-03T15:24:47;0;0;
38288;PMS5003;24092;53.370;-6.588;2023-02-03T15:27:19;1;0;
38288;PMS5003;24092;53.370;-6.588;2023-02-03T15:29:47;0;0;
38288;PMS5003;24092;53.370;-6.588;2023-02-03T15:32:15;2;1;
38288;PMS5003;24092;53.370;-6.588;2023-02-03T15:34:49;0;0;
38288;PMS5003;24092;53.370;-6.588;2023-02-03T15:37:20;0;0;
38288;PMS5003;24092;53.370;-6.588;2023-02-03T15:39:57;0;0;
38288;PMS5003;24092;53.370;-6.588;2023-02-03T15:42:27;0;0;
38288;PMS5003;24092;53.370;-6.588;2023-02-03T15:44:59;0;0;
38288;PMS5003;24092;53.370;-6.588;2023-02-03T15:47:31;0;0;
38288;PMS5003;24092;53.370;-6.588;2023-02-03T15:50:03;1;0;
38288;PMS5003;24092;53.370;-6.588;2023-02-03T15:52:34;0;0;
38288;PMS5003;24092;53.370;-6.588;2023-02-03T15:55:08;0;0;
38288;PMS5003;24092;53.370;-6.588;2023-02-03T15:57:43;0;0;
38288;PMS5003;24092;53.370;-6.588;2023-02-03T16:00:26;0;0;
38288;PMS5003;24092;53.370;-6.588;2023-02-03T16:02:57;1;0;
38288;PMS5003;24092;53.370;-6.588;2023-02-03T16:05:26;0;0;
38288;PMS5003;24092;53.370;-6.588;2023-02-03T16:07:55;1;1;
38288;PMS5003;24092;53.370;-6.588;2023-02-03T16:10:24;0;0;
38288;PMS5003;24092;53.370;-6.588;2023-02-03T16:12:53;0;0;
38288;PMS5003;24092;53.370;-6.588;2023-02-03T16:15:38;1;1;
38288;PMS5003;24092;53.370;-6.588;2023-02-03T16:18:08;1;1;
38288;PMS5003;24092;53.370;-6.588;2023-02-03T16:20:46;0;0;
38288;PMS5003;24092;53.370;-6.588;2023-02-03T16:23:17;0;0;
38288;PMS5003;24092;53.370;-6.588;2023-02-03T16:26:00;3;1;
38288;PMS5003;24092;53.370;-6.588;2023-02-03T16:28:30;2;1;
38288;PMS5003;24092;53.370;-6.588;2023-02-03T16:30:58;2;2;
38288;PMS5003;24092;53.370;-6.588;2023-02-03T16:33:30;1;1;
38288;PMS5003;24092;53.370;-6.588;2023-02-03T16:35:59;3;2;
38288;PMS5003;24092;53.370;-6.588;2023-02-03T16:38:28;1;1;
38288;PMS5003;24092;53.370;-6.588;2023-02-03T16:40:55;3;2;
38288;PMS5003;24092;53.370;-6.588;2023-02-03T16:43:21;0;0;
38288;PMS5003;24092;53.370;-6.588;2023-02-03T16:45:50;1;0;
38288;PMS5003;24092;53.370;-6.588;2023-02-03T16:48:20;2;2;
38288;PMS5003;24092;53.370;-6.588;2023-02-03T16:50:47;2;2;
38288;PMS5003;24092;53.370;-6.588;2023-02-03T16:53:15;2;1;
38288;PMS5003;24092;53.370;-6.588;2023-02-03T16:55:45;1;1;
38288;PMS5003;24092;53.370;-6.588;2023-02-03T16:58:12;4;2;
38288;PMS5003;24092;53.370;-6.588;2023-02-03T17:00:41;1;1;
38288;PMS5003;24092;53.370;-6.588;2023-02-03T17:03:09;2;2;
38288;PMS5003;24092;53.370;-6.588;2023-02-03T17:05:39;2;2;
38288;PMS5003;24092;53.370;-6.588;2023-02-03T17:08:07;2;2;
38288;PMS5003;24092;53.370;-6.588;2023-02-03T17:10:35;2;2;
38288;PMS5003;24092;53.370;-6.588;2023-02-03T17:13:05;4;2;
38288;PMS5003;24092;53.370;-6.588;2023-02-03T17:15:32;2;1;
38288;PMS5003;24092;53.370;-6.588;2023-02-03T17:17:59;3;3;
38288;PMS5003;24092;53.370;-6.588;2023-02-03T17:20:27;3;2;
38288;PMS5003;24092;53.370;-6.588;2023-02-03T17:22:54;3;3;
38288;PMS5003;24092;53.370;-6.588;2023-02-03T17:25:22;2;2;
38288;PMS5003;24092;53.370;-6.588;2023-02-03T17:27:48;1;1;
38288;PMS5003;24092;53.370;-6.588;2023-02-03T17:30:16;2;2;
38288;PMS5003;24092;53.370;-6.588;2023-02-03T17:32:43;1;1;
38288;PMS5003;24092;53.370;-6.588;2023-02-03T17:35:10;2;2;
38288;PMS5003;24092;53.370;-6.588;2023-02-03T17:37:37;3;2;
38288;PMS5003;24092;53.370;-6.588;2023-02-03T17:40:04;3;2;
38288;PMS5003;24092;53.370;-6.588;2023-02-03T17:42:32;1;1;
38288;PMS5003;24092;53.370;-6.588;2023-02-03T17:44:59;1;1;
38288;PMS5003;24092;53.370;-6.588;2023-02-03T17:47:26;1;1;
38288;PMS5003;24092;53.370;-6.588;2023-02-03T17:49:53;1;1;
38288;PMS5003;24092;53.370;-6.588;2023-02-03T17:52:20;1;1;
38288;PMS5003;24092;53.370;-6.588;2023-02-03T17:54:47;1;1;
38288;PMS5003;24092;53.370;-6.588;2023-02-03T17:57:14;2;2;
38288;PMS5003;24092;53.370;-6.588;2023-02-03T17:59:41;5;4;
38288;PMS5003;24092;53.370;-6.588;2023-02-03T18:02:08;2;2;
38288;PMS5003;24092;53.370;-6.588;2023-02-03T18:04:36;3;3;
38288;PMS5003;24092;53.370;-6.588;2023-02-03T18:07:02;2;2;
38288;PMS5003;24092;53.370;-6.588;2023-02-03T18:09:29;3;2;
38288;PMS5003;24092;53.370;-6.588;2023-02-03T18:11:56;5;4;
38288;PMS5003;24092;53.370;-6.588;2023-02-03T18:14:24;3;3;
38288;PMS5003;24092;53.370;-6.588;2023-02-03T18:16:51;3;3;
38288;PMS5003;24092;53.370;-6.588;2023-02-03T18:19:18;5;3;
38288;PMS5003;24092;53.370;-6.588;2023-02-03T18:21:45;2;2;
38288;PMS5003;24092;53.370;-6.588;2023-02-03T18:24:12;7;7;
38288;PMS5003;24092;53.370;-6.588;2023-02-03T18:26:44;5;4;
38288;PMS5003;24092;53.370;-6.588;2023-02-03T18:29:15;6;4;
38288;PMS5003;24092;53.370;-6.588;2023-02-03T18:31:44;7;6;
38288;PMS5003;24092;53.370;-6.588;2023-02-03T18:34:11;7;6;
38288;PMS5003;24092;53.370;-6.588;2023-02-03T18:36:40;6;6;
38288;PMS5003;24092;53.370;-6.588;2023-02-03T18:39:07;5;4;
38288;PMS5003;24092;53.370;-6.588;2023-02-03T18:41:34;8;8;
38288;PMS5003;24092;53.370;-6.588;2023-02-03T18:44:01;6;5;
38288;PMS5003;24092;53.370;-6.588;2023-02-03T18:46:29;7;6;
38288;PMS5003;24092;53.370;-6.588;2023-02-03T18:48:58;6;6;
38288;PMS5003;24092;53.370;-6.588;2023-02-03T18:51:26;8;8;
38288;PMS5003;24092;53.370;-6.588;2023-02-03T18:53:55;9;8;
38288;PMS5003;24092;53.370;-6.588;2023-02-03T18:56:23;9;9;
38288;PMS5003;24092;53.370;-6.588;2023-02-03T18:58:52;9;8;
38288;PMS5003;24092;53.370;-6.588;2023-02-03T19:01:20;13;13;
38288;PMS5003;24092;53.370;-6.588;2023-02-03T19:03:48;11;11;
38288;PMS5003;24092;53.370;-6.588;2023-02-03T19:06:16;14;13;
38288;PMS5003;24092;53.370;-6.588;2023-02-03T19:08:44;12;12;
38288;PMS5003;24092;53.370;-6.588;2023-02-03T19:11:12;12;12;
38288;PMS5003;24092;53.370;-6.588;2023-02-03T19:13:39;13;11;
38288;PMS5003;24092;53.370;-6.588;2023-02-03T19:16:07;12;12;
38288;PMS5003;24092;53.370;-6.588;2023-02-03T19:18:37;15;13;
38288;PMS5003;24092;53.370;-6.588;2023-02-03T19:21:04;14;14;
38288;PMS5003;24092;53.370;-6.588;2023-02-03T19:23:31;13;13;
38288;PMS5003;24092;53.370;-6.588;2023-02-03T19:25:58;13;12;
38288;PMS5003;24092;53.370;-6.588;2023-02-03T19:28:25;11;11;
38288;PMS5003;24092;53.370;-6.588;2023-02-03T19:30:52;13;12;
38288;PMS5003;24092;53.370;-6.588;2023-02-03T19:33:19;12;11;
38288;PMS5003;24092;53.370;-6.588;2023-02-03T19:35:46;10;8;
38288;PMS5003;24092;53.370;-6.588;2023-02-03T19:38:15;12;11;
38288;PMS5003;24092;53.370;-6.588;2023-02-03T19:40:44;8;8;
38288;PMS5003;24092;53.370;-6.588;2023-02-03T19:43:10;13;11;
38288;PMS5003;24092;53.370;-6.588;2023-02-03T19:45:37;11;8;
38288;PMS5003;24092;53.370;-6.588;2023-02-03T19:48:05;8;8;
38288;PMS5003;24092;53.370;-6.588;2023-02-03T19:50:32;8;6;
38288;PMS5003;24092;53.370;-6.588;2023-02-03T19:52:59;9;7;
38288;PMS5003;24092;53.370;-6.588;2023-02-03T19:55:27;13;11;
38288;PMS5003;24092;53.370;-6.588;2023-02-03T19:57:54;12;8;
38288;PMS5003;24092;53.370;-6.588;2023-02-03T20:00:22;8;8;
38288;PMS5003;24092;53.370;-6.588;2023-02-03T20:02:49;10;8;
38288;PMS5003;24092;53.370;-6.588;2023-02-03T20:05:16;8;7;
38288;PMS5003;24092;53.370;-6.588;2023-02-03T20:07:43;11;8;
38288;PMS5003;24092;53.370;-6.588;2023-02-03T20:10:10;6;6;
38288;PMS5003;24092;53.370;-6.588;2023-02-03T20:12:38;8;7;
38288;PMS5003;24092;53.370;-6.588;2023-02-03T20:15:06;8;7;
38288;PMS5003;24092;53.370;-6.588;2023-02-03T20:17:33;7;7;
38288;PMS5003;24092;53.370;-6.588;2023-02-03T20:20:00;7;6;
38288;PMS5003;24092;53.370;-6.588;2023-02-03T20:22:28;5;4;
38288;PMS5003;24092;53.370;-6.588;2023-02-03T20:24:55;5;5;
38288;PMS5003;24092;53.370;-6.588;2023-02-03T20:27:21;6;5;
38288;PMS5003;24092;53.370;-6.588;2023-02-03T20:29:49;4;4;
38288;PMS5003;24092;53.370;-6.588;2023-02-03T20:32:16;7;6;
38288;PMS5003;24092;53.370;-6.588;2023-02-03T20:34:42;4;4;
38288;PMS5003;24092;53.370;-6.588;2023-02-03T20:37:10;5;5;
38288;PMS5003;24092;53.370;-6.588;2023-02-03T20:39:37;5;4;
38288;PMS5003;24092;53.370;-6.588;2023-02-03T20:42:05;4;4;
38288;PMS5003;24092;53.370;-6.588;2023-02-03T20:44:38;5;4;
38288;PMS5003;24092;53.370;-6.588;2023-02-03T20:47:07;4;4;
38288;PMS5003;24092;53.370;-6.588;2023-02-03T20:49:37;6;5;
38288;PMS5003;24092;53.370;-6.588;2023-02-03T20:52:07;6;6;
38288;PMS5003;24092;53.370;-6.588;2023-02-03T20:54:36;8;8;
38288;PMS5003;24092;53.370;-6.588;2023-02-03T20:57:05;8;8;
38288;PMS5003;24092;53.370;-6.588;2023-02-03T20:59:36;6;6;
38288;PMS5003;24092;53.370;-6.588;2023-02-03T21:02:04;7;6;
38288;PMS5003;24092;53.370;-6.588;2023-02-03T21:04:41;6;6;
38288;PMS5003;24092;53.370;-6.588;2023-02-03T21:07:10;12;8;
38288;PMS5003;24092;53.370;-6.588;2023-02-03T21:09:39;7;6;
38288;PMS5003;24092;53.370;-6.588;2023-02-03T21:12:09;7;6;
38288;PMS5003;24092;53.370;-6.588;2023-02-03T21:14:38;5;4;
38288;PMS5003;24092;53.370;-6.588;2023-02-03T21:17:13;7;7;
38288;PMS5003;24092;53.370;-6.588;2023-02-03T21:19:41;7;6;
38288;PMS5003;24092;53.370;-6.588;2023-02-03T21:22:13;6;6;
38288;PMS5003;24092;53.370;-6.588;2023-02-03T21:24:44;6;6;
38288;PMS5003;24092;53.370;-6.588;2023-02-03T21:27:19;6;6;
38288;PMS5003;24092;53.370;-6.588;2023-02-03T21:29:49;6;6;
38288;PMS5003;24092;53.370;-6.588;2023-02-03T21:32:16;6;6;
38288;PMS5003;24092;53.370;-6.588;2023-02-03T21:34:43;9;8;
38288;PMS5003;24092;53.370;-6.588;2023-02-03T21:37:24;6;5;
38288;PMS5003;24092;53.370;-6.588;2023-02-03T21:40:10;5;5;
38288;PMS5003;24092;53.370;-6.588;2023-02-03T21:42:45;7;6;
38288;PMS5003;24092;53.370;-6.588;2023-02-03T21:45:45;5;5;
38288;PMS5003;24092;53.370;-6.588;2023-02-03T21:48:20;7;6;
38288;PMS5003;24092;53.370;-6.588;2023-02-03T21:50:50;8;5;
38288;PMS5003;24092;53.370;-6.588;2023-02-03T21:53:22;4;4;
38288;PMS5003;24092;53.370;-6.588;2023-02-03T21:55:52;6;6;
38288;PMS5003;24092;53.370;-6.588;2023-02-03T21:58:21;5;5;
38288;PMS5003;24092;53.370;-6.588;2023-02-03T22:00:50;4;4;
38288;PMS5003;24092;53.370;-6.588;2023-02-03T22:03:22;6;5;
38288;PMS5003;24092;53.370;-6.588;2023-02-03T22:05:54;6;5;
38288;PMS5003;24092;53.370;-6.588;2023-02-03T22:08:29;4;4;
38288;PMS5003;24092;53.370;-6.588;2023-02-03T22:11:01;4;3;
38288;PMS5003;24092;53.370;-6.588;2023-02-03T22:13:28;3;3;
38288;PMS5003;24092;53.370;-6.588;2023-02-03T22:15:56;5;5;
38288;PMS5003;24092;53.370;-6.588;2023-02-03T22:18:23;7;5;
38288;PMS5003;24092;53.370;-6.588;2023-02-03T22:20:51;4;4;
38288;PMS5003;24092;53.370;-6.588;2023-02-03T22:23:18;5;3;
38288;PMS5003;24092;53.370;-6.588;2023-02-03T22:25:46;5;5;
38288;PMS5003;24092;53.370;-6.588;2023-02-03T22:28:14;3;3;
38288;PMS5003;24092;53.370;-6.588;2023-02-03T22:30:41;4;3;
38288;PMS5003;24092;53.370;-6.588;2023-02-03T22:33:08;3;3;
38288;PMS5003;24092;53.370;-6.588;2023-02-03T22:35:35;2;2;
38288;PMS5003;24092;53.370;-6.588;2023-02-03T22:38:02;3;2;
38288;PMS5003;24092;53.370;-6.588;2023-02-03T22:40:29;2;2;
38288;PMS5003;24092;53.370;-6.588;2023-02-03T22:42:56;4;4;
38288;PMS5003;24092;53.370;-6.588;2023-02-03T22:45:23;3;2;
38288;PMS5003;24092;53.370;-6.588;2023-02-03T22:47:50;1;1;
38288;PMS5003;24092;53.370;-6.588;2023-02-03T22:50:17;2;2;
38288;PMS5003;24092;53.370;-6.588;2023-02-03T22:52:44;1;1;
38288;PMS5003;24092;53.370;-6.588;2023-02-03T22:55:11;3;3;
38288;PMS5003;24092;53.370;-6.588;2023-02-03T22:57:38;2;2;
38288;PMS5003;24092;53.370;-6.588;2023-02-03T23:00:06;2;2;
38288;PMS5003;24092;53.370;-6.588;2023-02-03T23:02:35;2;2;
38288;PMS5003;24092;53.370;-6.588;2023-02-03T23:05:04;3;2;
38288;PMS5003;24092;53.370;-6.588;2023-02-03T23:07:33;2;2;
38288;PMS5003;24092;53.370;-6.588;2023-02-03T23:10:00;3;2;
38288;PMS5003;24092;53.370;-6.588;2023-02-03T23:12:27;3;2;
38288;PMS5003;24092;53.370;-6.588;2023-02-03T23:14:54;3;3;
38288;PMS5003;24092;53.370;-6.588;2023-02-03T23:17:21;2;2;
38288;PMS5003;24092;53.370;-6.588;2023-02-03T23:19:48;3;2;
38288;PMS5003;24092;53.370;-6.588;2023-02-03T23:22:16;2;2;
38288;PMS5003;24092;53.370;-6.588;2023-02-03T23:24:42;2;2;
38288;PMS5003;24092;53.370;-6.588;2023-02-03T23:27:10;2;2;
38288;PMS5003;24092;53.370;-6.588;2023-02-03T23:29:37;1;1;
38288;PMS5003;24092;53.370;-6.588;2023-02-03T23:32:05;1;1;
38288;PMS5003;24092;53.370;-6.588;2023-02-03T23:34:33;2;2;
38288;PMS5003;24092;53.370;-6.588;2023-02-03T23:37:00;1;1;
38288;PMS5003;24092;53.370;-6.588;2023-02-03T23:39:27;2;2;
38288;PMS5003;24092;53.370;-6.588;2023-02-03T23:41:55;2;2;
38288;PMS5003;24092;53.370;-6.588;2023-02-03T23:44:23;2;1;
38288;PMS5003;24092;53.370;-6.588;2023-02-03T23:46:50;1;1;
38288;PMS5003;24092;53.370;-6.588;2023-02-03T23:49:17;0;0;
38288;PMS5003;24092;53.370;-6.588;2023-02-03T23:51:44;1;1;
38288;PMS5003;24092;53.370;-6.588;2023-02-03T23:54:11;0;0;
38288;PMS5003;24092;53.370;-6.588;2023-02-03T23:56:38;1;0;
38288;PMS5003;24092;53.370;-6.588;2023-02-03T23:59:05;0;0;
